Time;durP1;ratioP1;P1;durP2;ratioP2;P2;SDS_P1;SDS_P2;PMS_P1;PMS_P2;Temp;Humidity;BMP_temperature;BMP_pressure;BME280_temperature;BME280_humidity;BME280_pressure;Samples;Min_cycle;Max_cycle;Signal;HPM_P1;HPM_P2
2021/12/15 00:01:15;;;;;;;68.57;40.00;;;10.00;99.90;;;;;;4996577;28;89717;-43
2021/12/15 00:03:42;;;;;;;66.88;39.30;;;10.00;99.90;;;;;;4997785;28;90337;-40
2021/12/15 00:06:13;;;;;;;60.45;39.22;;;10.00;99.90;;;;;;4997210;28;89847;-41
2021/12/15 00:08:40;;;;;;;62.42;41.25;;;10.00;99.90;;;;;;4997454;28;90289;-35
2021/12/15 00:11:06;;;;;;;53.28;37.40;;;10.00;99.90;;;;;;4997625;28;89470;-34
2021/12/15 00:13:32;;;;;;;58.90;38.88;;;10.00;99.90;;;;;;4997774;28;90181;-41
2021/12/15 00:15:58;;;;;;;64.05;38.75;;;10.00;99.90;;;;;;4997211;28;88174;-40
2021/12/15 00:18:23;;;;;;;47.15;35.35;;;10.10;99.90;;;;;;4997266;28;90249;-40
2021/12/15 00:20:49;;;;;;;55.95;38.35;;;10.00;99.90;;;;;;4997407;28;95429;-39
2021/12/15 00:23:15;;;;;;;51.10;37.75;;;10.00;99.90;;;;;;4997691;28;89341;-34
2021/12/15 00:25:43;;;;;;;59.00;37.47;;;10.00;99.90;;;;;;4996544;28;88636;-41
2021/12/15 00:28:10;;;;;;;61.38;37.42;;;10.00;99.90;;;;;;4997793;28;90794;-43
2021/12/15 00:30:37;;;;;;;52.45;35.90;;;10.00;99.90;;;;;;4996274;28;91096;-42
2021/12/15 00:33:04;;;;;;;62.63;36.53;;;10.00;99.90;;;;;;4996362;28;90267;-39
2021/12/15 00:35:30;;;;;;;54.88;36.00;;;10.00;99.90;;;;;;4997699;28;88172;-37
2021/12/15 00:37:56;;;;;;;52.80;36.85;;;10.00;99.90;;;;;;4995732;28;91370;-36
2021/12/15 00:40:25;;;;;;;60.58;38.47;;;10.00;99.90;;;;;;4997353;28;88920;-37
2021/12/15 00:42:50;;;;;;;46.15;35.15;;;10.00;99.90;;;;;;4996841;28;89646;-44
2021/12/15 00:45:17;;;;;;;51.88;36.53;;;10.10;99.90;;;;;;4999895;28;88909;-40
2021/12/15 00:47:44;;;;;;;59.53;37.97;;;10.10;99.90;;;;;;5000229;28;90507;-38
2021/12/15 00:50:12;;;;;;;56.13;34.50;;;10.20;99.90;;;;;;5000784;28;90633;-43
2021/12/15 00:52:40;;;;;;;65.72;37.47;;;10.10;99.90;;;;;;5000427;28;89978;-39
2021/12/15 00:55:08;;;;;;;50.78;35.05;;;10.10;99.90;;;;;;5000480;28;89193;-40
2021/12/15 00:57:34;;;;;;;53.53;38.53;;;10.20;99.90;;;;;;4999161;28;90499;-37
2021/12/15 01:00:01;;;;;;;46.35;35.78;;;10.20;99.90;;;;;;5000629;28;88733;-39
2021/12/15 01:02:27;;;;;;;54.95;37.20;;;10.20;99.90;;;;;;5000501;28;89704;-37
2021/12/15 01:04:53;;;;;;;50.45;34.70;;;10.20;99.90;;;;;;4999731;28;89096;-39
2021/12/15 01:07:19;;;;;;;52.05;35.15;;;10.20;99.90;;;;;;5000626;28;90610;-45
2021/12/15 01:09:51;;;;;;;49.30;36.08;;;10.20;99.90;;;;;;5000219;28;90066;-38
2021/12/15 01:20:53;;;;;;;48.13;32.55;;;10.10;99.90;;;;;;4999695;28;90770;-38
2021/12/15 01:23:24;;;;;;;46.40;33.50;;;10.10;99.90;;;;;;4999731;28;89160;-36
2021/12/15 01:25:56;;;;;;;49.80;36.15;;;10.10;99.90;;;;;;4999467;28;88255;-38
2021/12/15 01:28:23;;;;;;;53.55;36.65;;;10.10;99.90;;;;;;5000036;28;90278;-43
2021/12/15 01:30:51;;;;;;;47.60;35.17;;;10.10;99.90;;;;;;5000307;28;90148;-44
2021/12/15 01:33:17;;;;;;;48.00;34.30;;;10.10;99.90;;;;;;4999603;28;89606;-36
2021/12/15 01:35:46;;;;;;;44.92;32.92;;;10.10;99.90;;;;;;4999167;28;89677;-34
2021/12/15 01:38:13;;;;;;;51.58;32.85;;;10.10;99.90;;;;;;4999279;28;89298;-37
2021/12/15 01:40:42;;;;;;;52.63;33.38;;;10.10;99.90;;;;;;4999951;28;89630;-38
2021/12/15 01:43:27;;;;;;;44.70;32.53;;;10.10;99.90;;;;;;4999777;28;89638;-38
2021/12/15 01:48:53;;;;;;;41.42;29.75;;;10.20;99.90;;;;;;4997921;28;90561;-41
2021/12/15 01:51:18;;;;;;;44.60;32.37;;;10.10;99.90;;;;;;4999380;28;89915;-42
2021/12/15 01:53:44;;;;;;;44.38;30.48;;;10.10;99.90;;;;;;4999642;28;88705;-40
2021/12/15 01:56:09;;;;;;;42.28;32.85;;;10.10;99.90;;;;;;4999175;28;88341;-36
2021/12/15 01:58:35;;;;;;;44.13;31.02;;;10.10;99.90;;;;;;4998066;28;90949;-37
2021/12/15 02:01:06;;;;;;;48.35;31.38;;;10.20;99.90;;;;;;4999351;28;90090;-38
2021/12/15 02:03:31;;;;;;;45.58;32.47;;;10.20;99.90;;;;;;4999768;28;89898;-37
2021/12/15 02:05:58;;;;;;;41.60;30.88;;;10.20;99.90;;;;;;4998993;28;88252;-37
2021/12/15 02:08:24;;;;;;;41.08;29.67;;;10.20;99.90;;;;;;4999901;28;90253;-43
2021/12/15 02:10:51;;;;;;;39.80;29.33;;;10.20;99.90;;;;;;4998406;28;91320;-37
2021/12/15 02:13:19;;;;;;;44.88;31.67;;;10.20;99.90;;;;;;4998304;28;90633;-38
2021/12/15 02:15:49;;;;;;;36.92;27.40;;;10.20;99.90;;;;;;4998775;28;89268;-42
2021/12/15 02:18:18;;;;;;;39.97;30.48;;;10.20;99.90;;;;;;4998841;28;91056;-35
2021/12/15 02:21:13;;;;;;;40.75;29.90;;;10.10;99.90;;;;;;4999078;28;90228;-41
2021/12/15 02:23:45;;;;;;;40.13;29.10;;;10.20;99.90;;;;;;4998580;28;89999;-40
2021/12/15 02:26:16;;;;;;;48.28;30.42;;;10.20;99.90;;;;;;4998997;28;89025;-37
2021/12/15 02:28:48;;;;;;;48.38;31.63;;;10.20;99.90;;;;;;4998721;28;90978;-35
2021/12/15 02:31:24;;;;;;;48.83;33.53;;;10.20;99.90;;;;;;4998591;28;90261;-43
2021/12/15 02:34:03;;;;;;;41.35;32.13;;;10.20;99.90;;;;;;4997828;28;89321;-38
2021/12/15 02:39:15;;;;;;;47.72;31.02;;;10.20;99.90;;;;;;4998878;28;90317;-43
2021/12/15 02:41:42;;;;;;;42.28;31.45;;;10.20;99.90;;;;;;4998924;28;90012;-41
2021/12/15 02:44:20;;;;;;;39.88;30.65;;;10.20;99.90;;;;;;4999217;28;89604;-39
2021/12/15 02:46:47;;;;;;;49.67;31.08;;;10.20;99.90;;;;;;4998683;28;89115;-42
2021/12/15 02:49:16;;;;;;;43.90;32.17;;;10.10;99.90;;;;;;4998696;28;90125;-42
2021/12/15 02:51:44;;;;;;;46.72;31.40;;;10.20;99.90;;;;;;4998362;28;90429;-39
2021/12/15 02:54:12;;;;;;;41.08;30.77;;;10.20;99.90;;;;;;4998616;28;90661;-40
2021/12/15 02:56:38;;;;;;;45.55;31.40;;;10.10;99.90;;;;;;4998821;28;88511;-37
2021/12/15 02:59:06;;;;;;;38.67;29.02;;;10.10;99.90;;;;;;4997923;28;90307;-44
2021/12/15 03:04:30;;;;;;;47.78;31.25;;;10.10;99.90;;;;;;4997973;28;89783;-38
2021/12/15 03:07:13;;;;;;;44.88;31.80;;;10.10;99.90;;;;;;4998146;28;89092;-42
2021/12/15 03:17:53;;;;;;;42.50;33.65;;;10.10;99.90;;;;;;4998565;28;89138;-35
2021/12/15 03:20:19;;;;;;;45.80;30.70;;;10.10;99.90;;;;;;4998382;28;90425;-33
2021/12/15 03:22:45;;;;;;;50.15;33.13;;;10.10;99.90;;;;;;4998198;28;90290;-36
2021/12/15 03:33:38;;;;;;;48.58;33.75;;;10.10;99.90;;;;;;4977890;28;89772;-36
2021/12/15 03:36:12;;;;;;;51.00;32.40;;;10.10;99.90;;;;;;4954025;28;89568;-35
2021/12/15 03:38:39;;;;;;;52.30;32.88;;;10.10;99.90;;;;;;4977798;28;88489;-39
2021/12/15 03:41:07;;;;;;;49.55;33.28;;;10.10;99.90;;;;;;4978519;28;90250;-39
2021/12/15 03:43:33;;;;;;;49.83;36.58;;;10.10;99.90;;;;;;4977904;28;89737;-35
2021/12/15 03:46:03;;;;;;;60.10;35.40;;;10.20;99.90;;;;;;4978055;28;89730;-37
2021/12/15 03:48:32;;;;;;;52.83;33.42;;;10.10;99.90;;;;;;4977709;28;89588;-36
2021/12/15 03:50:59;;;;;;;60.13;35.03;;;10.10;99.90;;;;;;4977149;28;89263;-45
2021/12/15 03:53:27;;;;;;;48.80;32.42;;;10.10;99.90;;;;;;4959749;28;90113;-39
2021/12/15 03:55:53;;;;;;;49.70;34.17;;;10.10;99.90;;;;;;4978106;28;90593;-33
2021/12/15 03:58:23;;;;;;;57.88;35.95;;;10.10;99.90;;;;;;4977998;28;88212;-40
2021/12/15 04:00:57;;;;;;;54.33;34.53;;;10.00;99.90;;;;;;4977059;28;90387;-39
2021/12/15 04:03:31;;;;;;;54.75;37.35;;;10.10;99.90;;;;;;4977827;28;89772;-41
2021/12/15 04:06:00;;;;;;;60.00;37.83;;;10.10;99.90;;;;;;4977348;28;89030;-39
2021/12/15 04:08:28;;;;;;;65.00;39.53;;;10.10;99.90;;;;;;4977730;28;89926;-36
2021/12/15 04:10:55;;;;;;;66.35;37.40;;;10.10;99.90;;;;;;4977738;28;89885;-40
2021/12/15 04:13:21;;;;;;;61.72;39.38;;;10.10;99.90;;;;;;4977930;28;89668;-42
2021/12/15 04:15:53;;;;;;;61.75;37.95;;;10.10;99.90;;;;;;4977129;28;88927;-39
2021/12/15 04:18:20;;;;;;;65.57;37.08;;;10.10;99.90;;;;;;4977412;28;90030;-37
2021/12/15 04:20:46;;;;;;;57.58;37.95;;;10.00;99.90;;;;;;4979976;28;90394;-38
2021/12/15 04:23:19;;;;;;;58.65;40.03;;;10.00;99.90;;;;;;4981459;28;90376;-34
2021/12/15 04:25:51;;;;;;;62.40;39.22;;;10.00;99.90;;;;;;4980491;28;89385;-36
2021/12/15 04:28:23;;;;;;;61.80;41.47;;;10.00;99.90;;;;;;4980641;28;89396;-40
2021/12/15 04:30:52;;;;;;;60.83;39.80;;;10.00;99.90;;;;;;4980268;28;89922;-41
2021/12/15 04:33:44;;;;;;;63.55;41.50;;;10.00;99.90;;;;;;4981036;28;90058;-43
2021/12/15 04:36:12;;;;;;;71.90;43.25;;;10.00;99.90;;;;;;4962955;28;89332;-39
2021/12/15 04:38:38;;;;;;;64.20;42.35;;;10.00;99.90;;;;;;4980435;28;89409;-45
2021/12/15 04:41:16;;;;;;;59.15;42.08;;;10.10;99.90;;;;;;4980663;28;90792;-37
2021/12/15 04:43:42;;;;;;;63.28;39.83;;;10.00;99.90;;;;;;4962051;28;93597;-37
2021/12/15 04:46:10;;;;;;;57.90;39.65;;;10.00;99.90;;;;;;4980842;28;91044;-45
2021/12/15 04:48:40;;;;;;;72.70;45.38;;;10.00;99.90;;;;;;4980825;28;89457;-45
2021/12/15 04:51:06;;;;;;;67.03;42.45;;;10.00;99.90;;;;;;4980155;28;90071;-43
2021/12/15 04:53:33;;;;;;;62.50;43.17;;;10.00;99.90;;;;;;4980637;28;89733;-37
2021/12/15 04:55:59;;;;;;;61.63;42.15;;;10.00;99.90;;;;;;4979978;28;89935;-37
2021/12/15 04:58:25;;;;;;;56.08;40.95;;;10.00;99.90;;;;;;4980746;28;88651;-44
2021/12/15 05:00:55;;;;;;;64.43;41.50;;;10.00;99.90;;;;;;4980279;28;90795;-38
2021/12/15 05:03:22;;;;;;;67.35;44.17;;;9.90;99.90;;;;;;4980214;28;89463;-37
2021/12/15 05:05:49;;;;;;;60.17;42.25;;;9.90;99.90;;;;;;4979818;28;89421;-39
2021/12/15 05:08:14;;;;;;;66.50;43.83;;;10.00;99.90;;;;;;4979718;28;89882;-39
2021/12/15 05:10:41;;;;;;;59.58;41.53;;;10.00;99.90;;;;;;4980433;28;91449;-38
2021/12/15 05:13:07;;;;;;;69.00;43.75;;;10.00;99.90;;;;;;4979821;28;89890;-38
2021/12/15 05:15:35;;;;;;;71.43;44.83;;;10.00;99.90;;;;;;4980341;28;88901;-37
2021/12/15 05:18:00;;;;;;;68.95;42.03;;;10.00;99.90;;;;;;4980495;28;89231;-37
2021/12/15 05:20:26;;;;;;;63.60;43.50;;;10.00;99.90;;;;;;4980356;28;90045;-35
2021/12/15 05:22:53;;;;;;;67.65;44.50;;;10.00;99.90;;;;;;4980197;28;89832;-42
2021/12/15 05:25:19;;;;;;;58.03;42.38;;;10.00;99.90;;;;;;4980502;28;90175;-37
2021/12/15 05:27:45;;;;;;;69.03;44.70;;;10.00;99.90;;;;;;4979824;28;88832;-40
2021/12/15 05:30:13;;;;;;;65.15;45.03;;;10.10;99.90;;;;;;4979586;28;90228;-41
2021/12/15 05:32:39;;;;;;;66.57;44.35;;;10.00;99.90;;;;;;4979114;28;90363;-37
2021/12/15 05:35:06;;;;;;;59.67;42.58;;;10.00;99.90;;;;;;4979755;28;90567;-39
2021/12/15 05:37:32;;;;;;;62.63;45.72;;;10.00;99.90;;;;;;4980519;28;89542;-41
2021/12/15 05:39:58;;;;;;;65.00;44.53;;;10.00;99.90;;;;;;4979535;28;90104;-37
2021/12/15 05:42:26;;;;;;;65.63;46.47;;;10.00;99.90;;;;;;4979548;28;89665;-35
2021/12/15 05:44:52;;;;;;;71.35;49.78;;;10.00;99.90;;;;;;4979268;28;89431;-43
2021/12/15 05:47:19;;;;;;;64.60;43.67;;;10.00;99.90;;;;;;4980835;28;89144;-38
2021/12/15 05:49:46;;;;;;;72.45;47.00;;;10.00;99.90;;;;;;4979129;28;90699;-39
2021/12/15 05:52:12;;;;;;;66.60;46.13;;;10.00;99.90;;;;;;4979617;28;89588;-36
2021/12/15 05:54:38;;;;;;;65.03;46.33;;;10.00;99.90;;;;;;4979669;28;88473;-40
2021/12/15 05:57:04;;;;;;;65.60;45.55;;;10.00;99.90;;;;;;4979700;28;89849;-39
2021/12/15 05:59:29;;;;;;;71.80;50.53;;;10.00;99.90;;;;;;4979710;28;90990;-40
2021/12/15 06:01:55;;;;;;;74.38;45.90;;;10.00;99.90;;;;;;4960817;28;89843;-43
2021/12/15 06:04:21;;;;;;;65.78;48.75;;;10.00;99.90;;;;;;4979462;28;89939;-36
2021/12/15 06:06:47;;;;;;;66.15;47.67;;;10.00;99.90;;;;;;4979742;28;90020;-36
2021/12/15 06:09:14;;;;;;;69.45;50.28;;;10.10;99.90;;;;;;4978990;28;90706;-38
2021/12/15 06:11:41;;;;;;;71.70;45.58;;;10.10;99.90;;;;;;4979928;28;88791;-40
2021/12/15 06:14:07;;;;;;;77.53;50.73;;;10.10;99.90;;;;;;4980379;28;89401;-35
2021/12/15 06:16:35;;;;;;;66.88;45.25;;;10.00;99.90;;;;;;4979255;28;89125;-44
2021/12/15 06:19:02;;;;;;;74.40;51.50;;;10.10;99.90;;;;;;4960882;28;90215;-37
2021/12/15 06:21:28;;;;;;;64.53;47.58;;;10.00;99.90;;;;;;4978803;28;91137;-37
2021/12/15 06:23:54;;;;;;;69.95;48.85;;;10.00;99.90;;;;;;4979196;28;91937;-41
2021/12/15 06:26:20;;;;;;;70.85;50.22;;;10.00;99.90;;;;;;4978871;28;88210;-39
2021/12/15 06:28:47;;;;;;;76.05;50.72;;;10.00;99.90;;;;;;4978840;28;90530;-34
2021/12/15 06:31:15;;;;;;;72.90;50.47;;;10.00;99.90;;;;;;4978964;28;91365;-38
2021/12/15 06:33:41;;;;;;;;;;;10.00;99.90;;;;;;4979854;28;90034;-39
2021/12/15 06:36:08;;;;;;;80.78;51.53;;;10.00;99.90;;;;;;4981666;28;89221;-39
2021/12/15 06:38:37;;;;;;;73.30;49.45;;;10.00;99.90;;;;;;4979432;28;90484;-36
2021/12/15 06:41:06;;;;;;;73.93;50.30;;;10.00;99.90;;;;;;4979022;28;88607;-41
2021/12/15 06:43:33;;;;;;;74.20;50.65;;;10.00;99.90;;;;;;4978410;28;89545;-42
2021/12/15 06:59:32;;;;;;;69.38;49.50;;;10.00;99.90;;;;;;4978645;28;90563;-43
2021/12/15 07:01:58;;;;;;;75.95;49.47;;;9.90;99.90;;;;;;4979005;28;89797;-39
2021/12/15 07:04:24;;;;;;;70.35;49.50;;;10.00;99.90;;;;;;4978612;28;89751;-39
2021/12/15 07:06:51;;;;;;;72.78;51.15;;;10.00;99.90;;;;;;4978740;28;89013;-39
2021/12/15 07:09:18;;;;;;;70.30;48.55;;;10.00;99.90;;;;;;4960984;28;90393;-39
2021/12/15 07:11:44;;;;;;;66.43;48.58;;;10.00;99.90;;;;;;4959162;28;90138;-39
2021/12/15 07:14:10;;;;;;;74.95;50.45;;;9.90;99.90;;;;;;4977925;28;91048;-42
2021/12/15 07:16:40;;;;;;;69.72;48.67;;;10.00;99.90;;;;;;4978910;28;87933;-36
2021/12/15 07:22:29;;;;;;;77.00;49.88;;;10.00;99.90;;;;;;4963400;28;90096;-35
2021/12/15 07:24:55;;;;;;;69.82;49.42;;;10.10;99.90;;;;;;4977404;28;89380;-39
2021/12/15 07:27:21;;;;;;;66.10;46.00;;;10.00;99.90;;;;;;4978267;28;88212;-36
2021/12/15 07:29:46;;;;;;;74.60;48.50;;;10.00;99.90;;;;;;4977735;28;90098;-35
2021/12/15 07:32:12;;;;;;;67.50;47.45;;;10.00;99.90;;;;;;4978750;28;90155;-38
2021/12/15 07:34:38;;;;;;;71.95;46.08;;;10.00;99.90;;;;;;4977049;28;89633;-38
2021/12/15 07:37:04;;;;;;;71.88;48.53;;;10.00;99.90;;;;;;4978001;28;88985;-43
2021/12/15 07:39:30;;;;;;;68.38;48.28;;;10.00;99.90;;;;;;4960051;28;90003;-41
2021/12/15 07:42:05;;;;;;;75.93;52.83;;;10.00;99.90;;;;;;4977907;28;89036;-36
2021/12/15 07:44:31;;;;;;;70.88;48.15;;;10.00;99.90;;;;;;4978627;28;89640;-37
2021/12/15 07:46:57;;;;;;;76.50;47.00;;;10.00;99.90;;;;;;4976959;28;89365;-42
2021/12/15 07:49:25;;;;;;;59.47;43.03;;;10.00;99.90;;;;;;4977320;28;91039;-38
2021/12/15 07:52:04;;;;;;;67.30;44.92;;;9.90;99.90;;;;;;4978438;28;89302;-36
2021/12/15 07:54:35;;;;;;;66.65;47.90;;;10.10;99.90;;;;;;4977840;28;90393;-42
2021/12/15 07:57:09;;;;;;;65.55;44.95;;;10.10;99.90;;;;;;4977746;28;89111;-44
2021/12/15 07:59:36;;;;;;;61.08;46.50;;;10.10;99.90;;;;;;4977929;28;89072;-36
2021/12/15 08:02:02;;;;;;;73.85;48.00;;;10.00;99.90;;;;;;4976363;28;90837;-40
2021/12/15 08:04:28;;;;;;;72.90;45.78;;;10.00;99.90;;;;;;4977922;28;90703;-38
2021/12/15 08:06:54;;;;;;;74.38;48.35;;;10.00;99.90;;;;;;4978048;28;88326;-42
2021/12/15 08:09:22;;;;;;;59.75;43.58;;;10.10;99.90;;;;;;4977156;28;90139;-39
2021/12/15 08:11:48;;;;;;;59.97;48.50;;;10.10;99.90;;;;;;4959788;28;90138;-42
2021/12/15 08:14:15;;;;;;;67.50;43.72;;;10.10;99.90;;;;;;4977598;28;89681;-37
2021/12/15 08:16:41;;;;;;;59.97;44.20;;;10.00;99.90;;;;;;4977484;28;89160;-34
2021/12/15 08:19:08;;;;;;;60.22;41.83;;;10.00;99.90;;;;;;4977963;28;90223;-39
2021/12/15 08:21:36;;;;;;;67.18;40.22;;;10.00;99.90;;;;;;4977419;28;90057;-40
2021/12/15 08:24:01;;;;;;;61.33;43.22;;;10.00;99.90;;;;;;4976668;28;89465;-41
2021/12/15 08:26:28;;;;;;;69.40;45.20;;;10.00;99.90;;;;;;4970746;28;89454;-37
2021/12/15 08:28:54;;;;;;;64.72;42.08;;;10.00;99.90;;;;;;4976231;28;90274;-39
2021/12/15 08:31:20;;;;;;;57.97;41.97;;;10.10;99.90;;;;;;4977142;28;89132;-36
2021/12/15 08:33:46;;;;;;;60.35;40.67;;;10.00;99.90;;;;;;4976911;28;89969;-39
2021/12/15 08:36:13;;;;;;;63.58;46.28;;;10.10;99.90;;;;;;4977222;28;89071;-36
2021/12/15 08:38:41;;;;;;;66.45;43.35;;;10.00;99.90;;;;;;4975681;28;90048;-39
2021/12/15 08:41:27;;;;;;;68.95;43.10;;;10.10;99.90;;;;;;4976548;28;90527;-37
2021/12/15 08:43:54;;;;;;;60.83;43.75;;;10.10;99.90;;;;;;4977168;28;88489;-40
2021/12/15 08:46:27;;;;;;;60.28;42.60;;;10.10;99.90;;;;;;4977076;28;88481;-32
2021/12/15 08:48:53;;;;;;;68.88;44.92;;;10.10;99.90;;;;;;4977035;28;90687;-40
2021/12/15 08:51:25;;;;;;;61.50;42.28;;;10.10;99.90;;;;;;4976776;28;89932;-38
2021/12/15 08:53:56;;;;;;;63.22;44.47;;;10.10;99.90;;;;;;4977135;28;90540;-40
2021/12/15 08:56:22;;;;;;;61.90;44.03;;;10.10;99.90;;;;;;4977440;28;89296;-39
2021/12/15 08:58:48;;;;;;;63.38;43.00;;;10.10;99.90;;;;;;4969267;28;89757;-40
2021/12/15 09:01:14;;;;;;;57.83;42.70;;;10.10;99.90;;;;;;4965454;28;90078;-38
2021/12/15 09:03:42;;;;;;;70.72;46.90;;;10.10;99.90;;;;;;4975269;28;89561;-37
2021/12/15 09:06:09;;;;;;;67.00;46.00;;;10.10;99.90;;;;;;4975819;28;88387;-40
2021/12/15 09:08:35;;;;;;;70.93;45.10;;;10.10;99.90;;;;;;4977924;28;90826;-38
2021/12/15 09:11:08;;;;;;;65.03;42.05;;;10.10;99.90;;;;;;4978268;28;89405;-39
2021/12/15 09:13:34;;;;;;;62.13;44.28;;;10.20;99.90;;;;;;4977594;28;89639;-39
2021/12/15 09:16:03;;;;;;;68.50;46.92;;;10.20;99.90;;;;;;4977604;28;89767;-38
2021/12/15 09:18:30;;;;;;;60.78;41.58;;;10.20;99.90;;;;;;4978790;28;89567;-39
2021/12/15 09:20:57;;;;;;;68.35;43.05;;;10.20;99.90;;;;;;4977822;28;89860;-39
2021/12/15 09:23:23;;;;;;;61.35;42.67;;;10.20;99.90;;;;;;4977717;28;89552;-35
2021/12/15 09:25:49;;;;;;;64.70;40.75;;;10.20;99.90;;;;;;4978361;28;88305;-39
2021/12/15 09:28:15;;;;;;;61.28;40.28;;;10.20;99.90;;;;;;4977852;28;91535;-38
2021/12/15 09:30:44;;;;;;;66.78;40.63;;;10.20;99.90;;;;;;4977849;28;89286;-41
2021/12/15 09:33:17;;;;;;;61.80;42.78;;;10.30;99.90;;;;;;4977912;28;89440;-41
2021/12/15 09:35:43;;;;;;;62.97;40.88;;;10.30;99.90;;;;;;4977383;28;89427;-38
2021/12/15 09:38:09;;;;;;;56.55;39.75;;;10.30;99.90;;;;;;4978017;28;90521;-37
2021/12/15 09:40:35;;;;;;;53.83;40.55;;;10.30;99.90;;;;;;4977836;28;90782;-40
2021/12/15 09:43:03;;;;;;;56.75;37.50;;;10.30;99.90;;;;;;4977068;28;90107;-37
2021/12/15 09:56:23;;;;;;;54.85;38.25;;;10.30;99.90;;;;;;4977491;28;90780;-40
2021/12/15 10:02:22;;;;;;;55.22;40.53;;;10.50;99.90;;;;;;4959355;28;90326;-43
2021/12/15 10:10:42;;;;;;;56.40;37.58;;;10.50;99.90;;;;;;4975725;28;88944;-43
2021/12/15 10:18:26;;;;;;;49.15;33.53;;;10.60;99.90;;;;;;4945009;28;90578;-37
2021/12/15 10:20:52;;;;;;;51.60;34.35;;;10.60;99.90;;;;;;4977082;28;90899;-36
2021/12/15 10:23:24;;;;;;;50.13;34.30;;;10.60;99.90;;;;;;4977353;28;89085;-41
2021/12/15 10:25:53;;;;;;;50.28;34.72;;;10.60;99.90;;;;;;4976927;28;90044;-44
2021/12/15 10:28:27;;;;;;;47.38;34.50;;;10.70;99.90;;;;;;4977450;28;88618;-38
2021/12/15 10:31:06;;;;;;;47.13;32.65;;;10.70;99.90;;;;;;4976235;28;90226;-42
2021/12/15 10:33:43;;;;;;;46.03;32.50;;;10.70;99.90;;;;;;4976188;28;90757;-40
2021/12/15 10:36:13;;;;;;;48.03;32.45;;;10.70;99.90;;;;;;4976398;28;89985;-41
2021/12/15 10:38:55;;;;;;;39.50;30.50;;;10.70;99.90;;;;;;4976823;28;88493;-39
2021/12/15 10:41:36;;;;;;;41.45;31.27;;;10.70;99.90;;;;;;4976767;28;89134;-43
2021/12/15 10:44:07;;;;;;;43.38;30.08;;;10.80;99.90;;;;;;4958666;28;90139;-41
2021/12/15 10:46:36;;;;;;;40.25;29.65;;;10.80;99.90;;;;;;4977190;28;88357;-42
2021/12/15 10:49:06;;;;;;;44.75;31.45;;;10.80;99.90;;;;;;4976679;28;88147;-42
2021/12/15 10:51:37;;;;;;;41.72;27.35;;;10.80;99.90;;;;;;4977196;28;88713;-39
2021/12/15 10:54:08;;;;;;;40.00;30.48;;;10.80;99.90;;;;;;4976846;28;89480;-46
2021/12/15 10:56:37;;;;;;;32.75;25.70;;;10.80;99.90;;;;;;4976092;28;90064;-41
2021/12/15 10:59:11;;;;;;;38.38;26.90;;;10.80;99.90;;;;;;4976254;28;89144;-39
2021/12/15 11:01:48;;;;;;;34.65;27.58;;;10.70;99.90;;;;;;4976950;28;89252;-38
2021/12/15 11:04:30;;;;;;;39.05;26.77;;;10.80;99.90;;;;;;4975736;28;90058;-41
2021/12/15 11:07:32;;;;;;;43.25;30.10;;;10.80;99.90;;;;;;4976727;28;90329;-36
2021/12/15 11:10:26;;;;;;;41.00;28.17;;;10.90;99.90;;;;;;4976334;28;88382;-40
2021/12/15 11:12:57;;;;;;;39.80;27.13;;;10.90;99.90;;;;;;4966098;28;90663;-35
2021/12/15 11:15:29;;;;;;;38.15;26.85;;;10.90;99.90;;;;;;4976225;28;90041;-42
2021/12/15 11:18:02;;;;;;;41.30;27.40;;;10.90;99.90;;;;;;4976278;28;89337;-45
2021/12/15 11:20:41;;;;;;;39.22;28.48;;;10.90;99.90;;;;;;4974275;28;88698;-40
2021/12/15 11:23:12;;;;;;;40.28;26.02;;;10.90;99.90;;;;;;4975860;28;90145;-35
2021/12/15 11:25:49;;;;;;;38.45;27.65;;;10.90;99.90;;;;;;4975256;28;90219;-42
2021/12/15 11:28:28;;;;;;;33.35;24.58;;;11.00;99.90;;;;;;4975150;28;89590;-35
2021/12/15 11:31:11;;;;;;;32.13;23.60;;;11.00;99.90;;;;;;4975577;28;88483;-40
2021/12/15 11:34:00;;;;;;;30.17;23.98;;;11.10;99.90;;;;;;4976065;28;90149;-39
2021/12/15 11:36:43;;;;;;;40.58;24.42;;;11.00;99.90;;;;;;4976405;28;90286;-41
2021/12/15 11:39:15;;;;;;;30.77;23.23;;;11.00;99.90;;;;;;4975636;28;89395;-42
2021/12/15 11:41:52;;;;;;;24.98;21.17;;;11.10;99.90;;;;;;4976245;28;88791;-35
2021/12/15 11:44:23;;;;;;;25.25;19.38;;;11.10;99.90;;;;;;4975978;28;91871;-40
2021/12/15 11:46:53;;;;;;;29.27;20.98;;;11.10;99.90;;;;;;4976570;28;88421;-41
2021/12/15 11:49:24;;;;;;;29.55;20.33;;;11.10;99.90;;;;;;4975660;28;89307;-38
2021/12/15 11:52:01;;;;;;;30.50;20.75;;;11.10;99.90;;;;;;4957836;28;89816;-39
2021/12/15 11:54:31;;;;;;;31.02;20.85;;;11.10;99.90;;;;;;4975505;28;89823;-38
2021/12/15 11:57:02;;;;;;;30.33;19.38;;;11.00;99.90;;;;;;4974508;28;89541;-37
2021/12/15 11:59:35;;;;;;;26.40;19.58;;;11.00;99.90;;;;;;4976388;28;89753;-37
2021/12/15 12:02:20;;;;;;;27.88;19.02;;;11.10;99.90;;;;;;4975316;28;88563;-42
2021/12/15 12:04:52;;;;;;;23.67;16.73;;;11.10;99.90;;;;;;4975713;28;90358;-41
2021/12/15 12:07:25;;;;;;;27.25;18.60;;;11.10;99.90;;;;;;4975790;28;89476;-43
2021/12/15 12:10:01;;;;;;;26.00;18.50;;;11.10;99.90;;;;;;4975426;28;89783;-37
2021/12/15 12:12:35;;;;;;;29.27;19.40;;;11.10;99.90;;;;;;4975925;28;90034;-45
2021/12/15 12:15:03;;;;;;;25.60;18.67;;;11.00;99.90;;;;;;4974685;28;88871;-39
2021/12/15 12:17:35;;;;;;;25.47;19.40;;;11.10;99.90;;;;;;4974742;28;90691;-44
2021/12/15 12:20:06;;;;;;;26.48;20.33;;;11.00;99.90;;;;;;4975381;28;90540;-37
2021/12/15 12:22:33;;;;;;;27.90;20.92;;;11.00;99.90;;;;;;4976489;28;88543;-40
2021/12/15 12:25:01;;;;;;;31.77;21.70;;;11.00;99.90;;;;;;4975177;28;91599;-37
2021/12/15 12:27:30;;;;;;;33.97;24.48;;;11.00;99.90;;;;;;4975032;28;89656;-42
2021/12/15 12:29:57;;;;;;;32.35;23.60;;;11.00;99.90;;;;;;4974687;28;89835;-41
2021/12/15 12:32:23;;;;;;;25.55;20.20;;;11.00;99.90;;;;;;4974581;28;88967;-45
2021/12/15 12:34:51;;;;;;;30.02;22.48;;;10.90;99.90;;;;;;4974501;28;90032;-38
2021/12/15 12:37:17;;;;;;;31.07;22.20;;;11.00;99.90;;;;;;4971689;28;89725;-37
2021/12/15 12:39:45;;;;;;;35.58;24.38;;;11.10;99.90;;;;;;4957025;28;88822;-39
2021/12/15 12:42:38;;;;;;;29.05;19.88;;;11.10;99.90;;;;;;4978785;28;90069;-44
2021/12/15 12:45:32;;;;;;;28.25;20.88;;;11.10;99.90;;;;;;4978806;28;90473;-43
2021/12/15 12:59:39;;;;;;;27.98;18.38;;;11.00;99.90;;;;;;4978209;28;89301;-37
2021/12/15 13:02:31;;;;;;;24.25;17.23;;;11.10;99.90;;;;;;4978408;28;90993;-37
2021/12/15 13:04:58;;;;;;;23.00;16.52;;;11.10;99.90;;;;;;4978083;28;89761;-42
2021/12/15 13:07:45;;;;;;;27.73;17.98;;;11.10;99.90;;;;;;4978780;28;88859;-35
2021/12/15 13:10:12;;;;;;;25.02;17.63;;;11.10;99.90;;;;;;4978105;28;89829;-37
2021/12/15 13:12:40;;;;;;;24.98;17.10;;;11.10;99.90;;;;;;4977583;28;90641;-46
2021/12/15 13:15:08;;;;;;;27.83;17.73;;;11.10;99.90;;;;;;4978035;28;89511;-41
2021/12/15 13:17:37;;;;;;;22.55;16.65;;;11.10;99.90;;;;;;4978096;28;90196;-37
2021/12/15 13:20:21;;;;;;;18.38;12.98;;;11.10;99.90;;;;;;4978658;28;90017;-39
2021/12/15 13:23:04;;;;;;;17.92;12.73;;;11.10;99.90;;;;;;4977521;28;89808;-42
2021/12/15 13:28:47;;;;;;;12.65;10.43;;;11.00;99.90;;;;;;4977213;28;89977;-43
2021/12/15 13:31:15;;;;;;;13.38;8.43;;;11.10;99.90;;;;;;4977716;28;89649;-39
2021/12/15 13:33:47;;;;;;;11.05;8.90;;;11.10;99.90;;;;;;4978455;28;89629;-38
2021/12/15 13:36:17;;;;;;;10.05;8.77;;;11.10;99.90;;;;;;4978120;28;90297;-40
2021/12/15 13:39:02;;;;;;;9.45;7.20;;;11.00;99.90;;;;;;4978144;28;90559;-43
2021/12/15 13:41:40;;;;;;;13.13;8.90;;;11.00;99.90;;;;;;4976505;28;89269;-43
2021/12/15 13:44:29;;;;;;;11.40;7.90;;;11.00;99.90;;;;;;4977021;28;89149;-43
2021/12/15 13:47:01;;;;;;;12.13;7.00;;;11.00;99.90;;;;;;4978011;28;88891;-39
2021/12/15 13:49:51;;;;;;;9.60;7.00;;;11.00;99.90;;;;;;4978146;28;91758;-39
2021/12/15 13:52:19;;;;;;;11.68;7.85;;;10.90;99.90;;;;;;4977283;28;89901;-38
2021/12/15 13:54:45;;;;;;;10.73;7.90;;;10.90;99.90;;;;;;4977283;28;89025;-39
2021/12/15 13:57:13;;;;;;;14.00;8.98;;;10.90;99.90;;;;;;4978372;28;88354;-37
2021/12/15 13:59:41;;;;;;;9.68;8.68;;;10.80;99.90;;;;;;4978178;28;90623;-43
2021/12/15 14:02:14;;;;;;;11.73;9.18;;;10.90;99.90;;;;;;4977611;28;89654;-39
2021/12/15 14:04:55;;;;;;;15.35;10.30;;;10.80;99.90;;;;;;4977005;28;89498;-38
2021/12/15 14:07:48;;;;;;;10.32;8.55;;;10.80;99.90;;;;;;4977450;28;89224;-37
2021/12/15 14:10:13;;;;;;;18.40;10.02;;;10.70;99.90;;;;;;4974140;28;90562;-43
2021/12/15 14:12:45;;;;;;;17.23;9.00;;;10.60;99.90;;;;;;4977306;28;89535;-39